createdAt,value
2019-05-30T00:00:28.835Z,59.20
2019-05-30T00:03:00.823Z,59.52
2019-05-30T00:05:32.722Z,59.69
2019-05-30T00:08:04.878Z,59.85
2019-05-30T00:10:37.693Z,59.50
2019-05-30T00:13:09.481Z,59.51
2019-05-30T00:15:42.639Z,59.00
2019-05-30T00:18:16.212Z,58.81
2019-05-30T00:20:52.559Z,58.63
2019-05-30T00:23:31.131Z,58.54
2019-05-30T00:26:07.575Z,59.18
2019-05-30T00:28:46.888Z,59.18
2019-05-30T00:31:42.590Z,59.25
2019-05-30T00:34:25.249Z,59.73
2019-05-30T00:36:59.751Z,60.07
2019-05-30T00:39:32.035Z,60.06
2019-05-30T00:42:04.206Z,60.07
2019-05-30T00:44:36.198Z,60.03
2019-05-30T00:47:07.989Z,59.90
2019-05-30T00:49:40.138Z,59.64
2019-05-30T00:52:12.878Z,59.65
2019-05-30T00:54:44.767Z,61.00
2019-05-30T00:57:16.582Z,62.24
2019-05-30T00:59:49.327Z,62.11
2019-05-30T01:02:21.190Z,62.22
2019-05-30T01:04:53.206Z,61.92
2019-05-30T01:07:24.934Z,62.04
2019-05-30T01:09:56.840Z,62.03
2019-05-30T01:12:28.604Z,61.93
2019-05-30T01:15:01.469Z,62.11
2019-05-30T01:17:36.634Z,62.03
2019-05-30T01:20:08.610Z,62.15
2019-05-30T01:22:40.415Z,62.03
2019-05-30T01:25:14.974Z,61.97
2019-05-30T01:27:47.136Z,61.93
2019-05-30T01:30:19.941Z,62.30
2019-05-30T01:32:52.140Z,62.60
2019-05-30T01:35:24.011Z,62.71
2019-05-30T01:37:56.114Z,62.53
2019-05-30T01:40:28.036Z,62.55
2019-05-30T01:42:59.950Z,62.20
2019-05-30T01:45:33.170Z,62.13
2019-05-30T01:48:06.713Z,62.13
2019-05-30T01:50:38.692Z,62.06
2019-05-30T01:53:11.166Z,61.75
2019-05-30T01:55:42.993Z,62.08
2019-05-30T01:58:14.924Z,62.05
2019-05-30T02:00:46.768Z,62.06
2019-05-30T02:03:18.607Z,61.92
2019-05-30T02:05:50.474Z,61.77
2019-05-30T02:08:25.221Z,61.62
2019-05-30T02:10:59.205Z,61.81
2019-05-30T02:13:32.475Z,61.49
2019-05-30T02:16:05.995Z,61.48
2019-05-30T02:18:37.854Z,61.54
2019-05-30T02:21:10.064Z,61.71
2019-05-30T02:23:41.961Z,63.13
2019-05-30T02:26:13.835Z,63.07
2019-05-30T02:28:45.585Z,63.23
2019-05-30T02:31:37.314Z,63.84
2019-05-30T02:33:50.825Z,63.72
2019-05-30T02:36:22.561Z,64.01
2019-05-30T02:38:56.313Z,63.88
2019-05-30T02:41:28.041Z,63.34
2019-05-30T02:44:01.207Z,63.71
2019-05-30T02:46:33.377Z,63.94
2019-05-30T02:49:07.238Z,64.59
2019-05-30T02:51:38.638Z,65.12
2019-05-30T02:54:11.523Z,65.51
2019-05-30T02:56:44.263Z,65.93
2019-05-30T02:59:16.054Z,65.84
2019-05-30T03:02:00.964Z,65.89
2019-05-30T03:04:22.654Z,65.83
2019-05-30T03:06:56.234Z,65.91
2019-05-30T03:09:28.363Z,65.57
2019-05-30T03:12:01.886Z,65.40
2019-05-30T03:14:33.730Z,65.84
2019-05-30T03:17:07.829Z,65.91
2019-05-30T03:19:39.566Z,66.14
2019-05-30T03:22:13.787Z,66.36
2019-05-30T03:24:44.945Z,66.28
2019-05-30T03:27:16.737Z,65.41
2019-05-30T03:29:48.510Z,64.59
2019-05-30T03:34:55.589Z,64.01
2019-05-30T03:37:29.832Z,63.56
2019-05-30T03:40:00.970Z,63.32
2019-05-30T03:42:33.267Z,62.52
2019-05-30T03:45:06.392Z,62.17
2019-05-30T03:47:42.121Z,61.79
2019-05-30T03:50:17.685Z,61.44
2019-05-30T03:52:49.076Z,61.23
2019-05-30T03:55:21.087Z,62.57
2019-05-30T03:57:58.878Z,63.54
2019-05-30T04:00:42.898Z,63.44
2019-05-30T04:03:21.822Z,62.90
2019-05-30T04:05:57.054Z,62.41
2019-05-30T04:08:29.183Z,62.69
2019-05-30T04:11:01.593Z,62.46
2019-05-30T04:13:48.466Z,62.11
2019-05-30T04:16:20.549Z,61.83
2019-05-30T04:18:52.822Z,61.56
2019-05-30T04:21:25.971Z,61.52
2019-05-30T04:23:59.447Z,61.49
2019-05-30T04:26:31.171Z,61.53
2019-05-30T04:29:02.902Z,61.87
2019-05-30T04:31:35.901Z,62.18
2019-05-30T04:34:08.409Z,62.52
2019-05-30T04:36:40.602Z,62.98
2019-05-30T04:39:15.043Z,63.28
2019-05-30T04:41:46.858Z,63.75
2019-05-30T04:44:20.367Z,63.88
2019-05-30T04:46:52.409Z,63.70
2019-05-30T04:49:25.832Z,63.59
2019-05-30T04:51:57.563Z,63.55
2019-05-30T04:54:29.405Z,63.69
2019-05-30T04:57:01.214Z,63.69
2019-05-30T04:59:33.015Z,63.80
2019-05-30T05:02:05.055Z,63.77
2019-05-30T05:04:40.114Z,64.06
2019-05-30T05:07:11.839Z,64.22
2019-05-30T05:09:47.954Z,64.12
2019-05-30T05:12:20.373Z,63.49
2019-05-30T05:14:53.200Z,63.15
2019-05-30T05:17:25.022Z,62.93
2019-05-30T05:19:56.728Z,62.64
2019-05-30T05:22:28.520Z,62.41
2019-05-30T05:25:02.021Z,62.08
2019-05-30T05:27:33.752Z,62.13
2019-05-30T05:30:05.889Z,62.10
2019-05-30T05:32:39.420Z,61.78
2019-05-30T05:35:11.192Z,61.52
2019-05-30T05:37:42.945Z,61.27
2019-05-30T05:40:16.078Z,61.02
2019-05-30T05:42:47.878Z,60.62
2019-05-30T05:45:20.549Z,60.12
2019-05-30T05:47:52.877Z,59.63
2019-05-30T05:50:24.734Z,57.80
2019-05-30T05:52:56.462Z,53.23
2019-05-30T05:55:29.135Z,49.91
2019-05-30T05:58:04.155Z,47.25
2019-05-30T06:00:34.508Z,45.14
2019-05-30T06:03:06.195Z,43.43
2019-05-30T06:05:52.218Z,41.61
2019-05-30T06:08:11.856Z,40.58
2019-05-30T06:10:44.284Z,40.05
2019-05-30T06:13:16.595Z,39.28
2019-05-30T06:15:49.111Z,39.08
2019-05-30T06:18:24.300Z,38.74
2019-05-30T06:20:56.817Z,38.61
2019-05-30T06:23:28.561Z,38.48
2019-05-30T06:26:00.278Z,37.37
2019-05-30T06:28:32.120Z,40.92
2019-05-30T06:31:04.819Z,38.56
2019-05-30T06:33:36.685Z,36.56
2019-05-30T06:36:10.235Z,37.43
2019-05-30T06:38:43.343Z,36.42
2019-05-30T06:41:16.787Z,35.04
2019-05-30T06:43:48.708Z,33.86
2019-05-30T06:46:20.429Z,32.89
2019-05-30T06:48:52.198Z,32.48
2019-05-30T06:51:26.883Z,31.04
2019-05-30T06:54:00.914Z,31.27
2019-05-30T06:56:55.965Z,30.81
2019-05-30T06:59:41.633Z,30.17
2019-05-30T07:02:13.391Z,29.94
2019-05-30T07:04:51.808Z,30.06
2019-05-30T07:07:19.477Z,29.68
2019-05-30T07:09:55.674Z,29.26
2019-05-30T07:12:31.431Z,29.81
2019-05-30T07:15:07.477Z,28.88
2019-05-30T07:17:56.248Z,28.89
2019-05-30T07:20:20.559Z,28.21
2019-05-30T07:23:00.756Z,28.59
2019-05-30T07:25:35.028Z,28.07
2019-05-30T07:28:07.620Z,28.18
2019-05-30T07:30:43.547Z,28.02
2019-05-30T07:33:17.870Z,27.63
2019-05-30T07:35:50.373Z,27.28
2019-05-30T07:38:22.265Z,26.65
2019-05-30T07:40:54.007Z,25.12
2019-05-30T07:43:29.054Z,24.35
2019-05-30T07:46:01.609Z,23.52
2019-05-30T07:48:34.342Z,22.65
2019-05-30T07:51:06.131Z,22.93
2019-05-30T07:53:39.070Z,22.62
2019-05-30T07:56:11.112Z,22.56
2019-05-30T07:58:42.798Z,22.81
2019-05-30T08:01:14.892Z,21.87
2019-05-30T08:03:46.697Z,21.76
2019-05-30T08:06:18.682Z,21.66
2019-05-30T08:08:52.498Z,21.33
2019-05-30T08:11:24.228Z,21.41
2019-05-30T08:13:56.020Z,21.73
2019-05-30T08:16:29.093Z,21.84
2019-05-30T08:19:00.971Z,21.16
2019-05-30T08:21:34.620Z,21.11
2019-05-30T08:24:06.479Z,21.60
2019-05-30T08:26:40.715Z,21.58
2019-05-30T08:29:12.487Z,21.68
2019-05-30T08:31:48.415Z,20.96
2019-05-30T08:34:22.039Z,20.82
2019-05-30T08:36:53.825Z,21.78
2019-05-30T08:39:25.579Z,22.06
2019-05-30T08:41:57.365Z,21.90
2019-05-30T08:44:30.062Z,22.74
2019-05-30T08:47:01.860Z,21.73
2019-05-30T08:49:34.027Z,22.19
2019-05-30T08:52:06.121Z,23.83
2019-05-30T08:54:38.994Z,23.54
2019-05-30T08:57:10.716Z,23.60
2019-05-30T08:59:44.934Z,23.87
2019-05-30T09:02:17.881Z,24.61
2019-05-30T09:04:50.808Z,24.36
2019-05-30T09:07:22.715Z,24.09
2019-05-30T09:09:55.584Z,24.18
2019-05-30T09:12:27.487Z,25.57
2019-05-30T09:14:59.570Z,24.61
2019-05-30T09:17:33.365Z,23.60
2019-05-30T09:20:05.957Z,24.10
2019-05-30T09:22:39.618Z,23.48
2019-05-30T09:25:13.034Z,22.46
2019-05-30T09:27:46.639Z,23.17
2019-05-30T09:30:20.539Z,23.56
2019-05-30T09:32:52.280Z,23.19
2019-05-30T09:35:24.036Z,24.42
2019-05-30T09:38:01.040Z,23.99
2019-05-30T09:40:33.126Z,23.05
2019-05-30T09:43:09.110Z,23.48
2019-05-30T09:45:42.310Z,22.89
2019-05-30T09:48:14.637Z,23.98
2019-05-30T09:50:48.740Z,23.09
2019-05-30T09:53:22.473Z,23.61
2019-05-30T09:55:54.238Z,23.51
2019-05-30T09:58:26.027Z,24.21
2019-05-30T10:00:57.801Z,24.02
2019-05-30T10:03:30.696Z,22.63
2019-05-30T10:06:05.512Z,23.28
2019-05-30T10:08:39.136Z,23.46
2019-05-30T10:11:11.293Z,21.87
2019-05-30T10:13:49.775Z,22.94
2019-05-30T10:16:22.900Z,24.34
2019-05-30T10:18:57.507Z,22.21
2019-05-30T10:21:34.569Z,21.65
2019-05-30T10:24:08.246Z,22.19
2019-05-30T10:26:46.087Z,23.75
2019-05-30T10:29:19.567Z,24.45
2019-05-30T10:31:53.388Z,23.28
2019-05-30T10:34:26.535Z,23.05
2019-05-30T10:36:58.333Z,22.87
2019-05-30T10:39:30.105Z,22.78
2019-05-30T10:42:01.994Z,22.25
2019-05-30T10:44:37.187Z,21.85
2019-05-30T10:47:09.358Z,22.26
2019-05-30T10:49:41.189Z,22.82
2019-05-30T10:52:13.763Z,22.85
2019-05-30T10:54:47.925Z,21.91
2019-05-30T10:57:21.702Z,23.01
2019-05-30T10:59:54.650Z,22.00
2019-05-30T11:02:26.478Z,22.15
2019-05-30T11:04:58.333Z,23.65
2019-05-30T11:07:55.076Z,23.87
2019-05-30T11:10:25.434Z,22.39
2019-05-30T11:13:05.457Z,22.35
2019-05-30T11:15:30.890Z,21.64
2019-05-30T11:18:02.922Z,21.69
2019-05-30T11:20:34.684Z,22.69
2019-05-30T11:23:06.620Z,22.05
2019-05-30T11:25:38.645Z,22.54
2019-05-30T11:28:10.879Z,23.13
2019-05-30T11:30:43.230Z,24.12
2019-05-30T11:33:15.037Z,24.97
2019-05-30T11:35:46.808Z,23.93
2019-05-30T11:38:18.520Z,24.46
2019-05-30T11:40:51.361Z,24.26
2019-05-30T11:43:23.306Z,25.00
2019-05-30T11:45:55.979Z,25.17
2019-05-30T11:48:27.742Z,25.17
2019-05-30T11:51:00.036Z,25.87
2019-05-30T11:53:32.204Z,26.12
2019-05-30T11:56:04.040Z,25.39
2019-05-30T11:58:35.769Z,25.72
2019-05-30T12:01:09.280Z,25.06
2019-05-30T12:03:41.122Z,25.39
2019-05-30T12:06:12.989Z,24.76
2019-05-30T12:08:44.756Z,26.02
2019-05-30T12:11:16.628Z,25.33
2019-05-30T12:13:48.363Z,23.70
2019-05-30T12:16:20.219Z,24.44
2019-05-30T12:18:53.959Z,24.63
2019-05-30T12:21:25.768Z,23.82
2019-05-30T12:23:58.171Z,24.21
2019-05-30T12:26:33.975Z,24.20
2019-05-30T12:29:05.330Z,24.04
2019-05-30T12:31:39.560Z,24.11
2019-05-30T12:34:14.471Z,24.10
2019-05-30T12:36:46.746Z,25.01
2019-05-30T12:39:42.457Z,23.75
2019-05-30T12:42:14.266Z,23.10
2019-05-30T12:44:46.119Z,22.88
2019-05-30T12:47:17.945Z,22.75
2019-05-30T12:49:49.742Z,23.02
2019-05-30T12:52:21.679Z,24.17
2019-05-30T12:54:54.455Z,22.76
2019-05-30T12:57:26.803Z,23.78
2019-05-30T13:00:00.951Z,22.83
2019-05-30T13:02:34.710Z,23.49
2019-05-30T13:05:07.192Z,23.25
2019-05-30T13:07:39.261Z,23.14
2019-05-30T13:10:13.322Z,21.11
2019-05-30T13:12:44.755Z,22.00
2019-05-30T13:15:16.508Z,23.46
2019-05-30T13:17:48.468Z,21.91
2019-05-30T13:20:20.214Z,20.78
2019-05-30T13:22:51.992Z,20.07
2019-05-30T13:25:24.778Z,19.31
2019-05-30T13:28:01.966Z,20.72
2019-05-30T13:30:32.722Z,21.40
2019-05-30T13:33:04.922Z,20.55
2019-05-30T13:35:36.802Z,19.86
2019-05-30T13:38:09.661Z,21.19
2019-05-30T13:40:41.419Z,22.73
2019-05-30T13:43:13.222Z,20.86
2019-05-30T13:45:45.223Z,20.25
2019-05-30T13:48:18.427Z,20.69
2019-05-30T13:50:51.306Z,20.63
2019-05-30T13:53:23.018Z,21.56
2019-05-30T13:55:56.638Z,21.43
2019-05-30T13:58:28.423Z,21.14
2019-05-30T14:01:11.516Z,19.79
2019-05-30T14:03:39.145Z,20.77
2019-05-30T14:06:11.586Z,21.43
2019-05-30T14:08:43.724Z,20.64
2019-05-30T14:11:15.445Z,19.95
2019-05-30T14:13:47.295Z,19.00
2019-05-30T14:16:19.409Z,19.32
2019-05-30T14:18:51.225Z,19.11
2019-05-30T14:21:25.364Z,19.53
2019-05-30T14:23:57.136Z,18.64
2019-05-30T14:26:28.905Z,19.82
2019-05-30T14:29:02.275Z,20.30
2019-05-30T14:31:36.102Z,20.16
2019-05-30T14:34:08.094Z,20.46
2019-05-30T14:36:39.839Z,21.02
2019-05-30T14:39:13.464Z,21.02
2019-05-30T14:41:45.790Z,21.06
2019-05-30T14:44:17.552Z,20.90
2019-05-30T14:46:49.360Z,21.62
2019-05-30T14:49:21.176Z,21.59
2019-05-30T14:51:52.882Z,21.14
2019-05-30T14:54:24.653Z,22.19
2019-05-30T14:56:56.442Z,22.31
2019-05-30T14:59:28.338Z,21.89
2019-05-30T15:02:00.151Z,21.48
2019-05-30T15:04:31.935Z,21.58
2019-05-30T15:07:03.683Z,21.71
2019-05-30T15:09:36.386Z,21.69
2019-05-30T15:12:08.711Z,21.42
2019-05-30T15:14:40.531Z,22.18
2019-05-30T15:17:12.633Z,22.04
2019-05-30T15:19:44.385Z,22.12
2019-05-30T15:22:18.518Z,21.63
2019-05-30T15:24:52.198Z,21.40
2019-05-30T15:27:25.666Z,21.87
2019-05-30T15:29:57.444Z,21.43
2019-05-30T15:32:29.217Z,21.48
2019-05-30T15:35:01.051Z,21.48
2019-05-30T15:37:32.765Z,21.16
2019-05-30T15:40:06.717Z,21.31
2019-05-30T15:42:38.661Z,21.44
2019-05-30T15:45:11.750Z,21.48
2019-05-30T15:47:43.653Z,21.22
2019-05-30T15:50:17.249Z,21.56
2019-05-30T15:52:48.971Z,21.38
2019-05-30T15:55:23.152Z,21.44
2019-05-30T15:57:54.230Z,21.13
2019-05-30T16:00:27.531Z,21.17
2019-05-30T16:02:59.304Z,21.42
2019-05-30T16:05:31.077Z,21.00
2019-05-30T16:08:02.905Z,20.99
2019-05-30T16:10:36.745Z,21.37
2019-05-30T16:13:09.235Z,21.45
2019-05-30T16:15:44.214Z,21.61
2019-05-30T16:18:15.871Z,21.27
2019-05-30T16:20:48.100Z,21.72
2019-05-30T16:23:20.445Z,21.72
2019-05-30T16:25:52.310Z,21.03
2019-05-30T16:28:24.145Z,20.76
2019-05-30T16:30:55.993Z,20.96
2019-05-30T16:33:27.768Z,20.71
2019-05-30T16:35:59.833Z,20.97
2019-05-30T16:38:31.655Z,20.63
2019-05-30T16:41:03.410Z,21.30
2019-05-30T16:43:35.130Z,20.82
2019-05-30T16:46:06.906Z,21.38
2019-05-30T16:48:39.054Z,20.62
2019-05-30T16:51:10.781Z,21.32
2019-05-30T16:53:42.936Z,20.41
2019-05-30T16:56:17.319Z,20.04
2019-05-30T16:58:50.995Z,20.95
2019-05-30T17:01:24.179Z,20.41
2019-05-30T17:03:56.068Z,20.61
2019-05-30T17:06:29.192Z,20.90
2019-05-30T17:09:01.105Z,21.74
2019-05-30T17:11:35.054Z,21.60
2019-05-30T17:14:08.543Z,22.19
2019-05-30T17:16:41.329Z,22.07
2019-05-30T17:19:13.619Z,21.76
2019-05-30T17:21:45.467Z,20.56
2019-05-30T17:24:17.200Z,20.23
2019-05-30T17:26:51.926Z,20.31
2019-05-30T17:29:23.569Z,21.25
2019-05-30T17:31:55.639Z,20.45
2019-05-30T17:34:29.122Z,21.42
2019-05-30T17:37:01.330Z,21.41
2019-05-30T17:39:33.140Z,21.57
2019-05-30T17:42:07.190Z,21.51
2019-05-30T17:44:38.963Z,21.51
2019-05-30T17:47:12.137Z,21.76
2019-05-30T17:49:44.001Z,22.14
2019-05-30T17:52:17.044Z,21.73
2019-05-30T17:54:48.890Z,21.68
2019-05-30T17:57:21.953Z,21.70
2019-05-30T17:59:53.753Z,21.73
2019-05-30T18:02:26.622Z,22.27
2019-05-30T18:04:58.385Z,22.00
2019-05-30T18:07:31.194Z,21.50
2019-05-30T18:10:03.160Z,21.57
2019-05-30T18:12:38.540Z,21.88
2019-05-30T18:15:10.704Z,21.91
2019-05-30T18:17:43.289Z,21.33
2019-05-30T18:20:17.040Z,21.64
2019-05-30T18:22:48.783Z,24.19
2019-05-30T18:25:21.605Z,25.69
2019-05-30T18:27:54.338Z,26.42
2019-05-30T18:30:39.384Z,27.54
2019-05-30T18:33:12.471Z,28.23
2019-05-30T18:35:44.707Z,29.18
2019-05-30T18:38:16.646Z,29.49
2019-05-30T18:40:49.701Z,30.20
2019-05-30T18:43:23.184Z,30.13
2019-05-30T18:45:55.122Z,30.23
2019-05-30T18:48:27.329Z,30.92
2019-05-30T18:51:10.114Z,30.95
2019-05-30T18:53:38.965Z,30.90
2019-05-30T18:56:12.317Z,31.45
2019-05-30T18:58:46.162Z,31.61
2019-05-30T19:01:17.752Z,31.91
2019-05-30T19:03:49.626Z,32.06
2019-05-30T19:06:22.456Z,32.11
2019-05-30T19:08:54.763Z,32.38
2019-05-30T19:11:30.640Z,32.19
2019-05-30T19:14:02.797Z,32.69
2019-05-30T19:16:37.147Z,33.08
2019-05-30T19:19:09.226Z,33.03
2019-05-30T19:21:41.010Z,33.29
2019-05-30T19:24:15.661Z,33.52
2019-05-30T19:26:47.696Z,33.33
2019-05-30T19:29:19.626Z,33.48
2019-05-30T19:31:57.307Z,33.80
2019-05-30T19:34:30.750Z,34.09
2019-05-30T19:37:02.593Z,33.84
2019-05-30T19:39:36.141Z,34.13
2019-05-30T19:42:08.165Z,34.59
2019-05-30T19:44:41.594Z,35.02
2019-05-30T19:47:13.806Z,35.46
2019-05-30T19:49:46.097Z,36.09
2019-05-30T19:52:17.911Z,36.30
2019-05-30T19:54:49.767Z,36.68
2019-05-30T19:57:21.661Z,37.00
2019-05-30T19:59:57.239Z,37.64
2019-05-30T20:02:29.858Z,38.45
2019-05-30T20:05:01.810Z,38.89
2019-05-30T20:07:34.578Z,39.31
2019-05-30T20:10:07.178Z,40.14
2019-05-30T20:12:39.140Z,40.74
2019-05-30T20:15:11.245Z,40.57
2019-05-30T20:17:43.089Z,41.31
2019-05-30T20:20:14.841Z,41.64
2019-05-30T20:22:46.647Z,42.21
2019-05-30T20:25:19.306Z,42.73
2019-05-30T20:27:51.287Z,43.44
2019-05-30T20:30:26.095Z,42.90
2019-05-30T20:32:57.855Z,42.67
2019-05-30T20:35:29.610Z,43.38
2019-05-30T20:38:01.700Z,44.63
2019-05-30T20:40:34.818Z,44.94
2019-05-30T20:43:08.021Z,45.41
2019-05-30T20:45:45.688Z,45.39
2019-05-30T20:48:13.375Z,45.57
2019-05-30T20:50:47.422Z,45.98
2019-05-30T20:53:20.545Z,46.67
2019-05-30T20:55:52.827Z,46.44
2019-05-30T20:58:25.117Z,47.05
2019-05-30T21:00:57.267Z,47.32
2019-05-30T21:03:35.579Z,47.09
2019-05-30T21:06:07.007Z,47.62
2019-05-30T21:08:39.058Z,47.52
2019-05-30T21:11:12.572Z,47.83
2019-05-30T21:13:44.392Z,48.18
2019-05-30T21:16:16.237Z,48.37
2019-05-30T21:18:48.420Z,48.57
2019-05-30T21:21:20.309Z,49.11
2019-05-30T21:23:52.234Z,49.32
2019-05-30T21:26:25.492Z,49.00
2019-05-30T21:28:59.104Z,49.28
2019-05-30T21:32:13.173Z,49.54
2019-05-30T21:34:48.431Z,50.63
2019-05-30T21:37:20.570Z,51.05
2019-05-30T21:39:53.571Z,51.38
2019-05-30T21:42:25.496Z,51.28
2019-05-30T21:44:59.190Z,50.83
2019-05-30T21:47:31.280Z,50.87
2019-05-30T21:50:03.243Z,51.28
2019-05-30T21:52:35.240Z,51.30
2019-05-30T21:55:07.796Z,51.33
2019-05-30T21:57:42.266Z,51.16
2019-05-30T22:00:19.449Z,51.29
2019-05-30T22:02:57.374Z,52.08
2019-05-30T22:05:29.499Z,52.60
2019-05-30T22:08:02.063Z,52.25
2019-05-30T22:10:33.964Z,52.48
2019-05-30T22:13:09.443Z,52.94
2019-05-30T22:15:39.584Z,52.92
2019-05-30T22:18:13.559Z,53.09
2019-05-30T22:20:45.871Z,53.44
2019-05-30T22:23:17.894Z,53.54
2019-05-30T22:25:50.347Z,53.82
2019-05-30T22:28:22.416Z,54.22
2019-05-30T22:30:54.339Z,54.62
2019-05-30T22:33:26.880Z,55.44
2019-05-30T22:35:58.755Z,55.39
2019-05-30T22:38:30.510Z,55.65
2019-05-30T22:41:03.606Z,56.13
2019-05-30T22:43:37.591Z,56.49
2019-05-30T22:46:37.345Z,56.46
2019-05-30T22:49:12.277Z,56.40
2019-05-30T22:51:48.965Z,56.66
2019-05-30T22:54:36.015Z,56.52
2019-05-30T22:57:52.883Z,56.57
2019-05-30T23:00:27.253Z,56.94
2019-05-30T23:02:59.101Z,57.20
2019-05-30T23:05:31.074Z,57.26
2019-05-30T23:08:02.891Z,57.28
2019-05-30T23:10:34.787Z,57.69
2019-05-30T23:13:08.000Z,57.63
2019-05-30T23:15:39.804Z,57.87
2019-05-30T23:18:11.912Z,57.97
2019-05-30T23:20:43.910Z,58.24
2019-05-30T23:23:15.659Z,58.19
2019-05-30T23:25:47.841Z,58.52
2019-05-30T23:28:42.412Z,58.63
2019-05-30T23:31:17.790Z,58.37
2019-05-30T23:33:50.276Z,58.52
2019-05-30T23:36:23.679Z,58.94
2019-05-30T23:38:56.810Z,59.07
2019-05-30T23:41:30.323Z,59.25
2019-05-30T23:44:11.889Z,59.04
2019-05-30T23:46:43.423Z,59.57
2019-05-30T23:49:20.388Z,59.89
2019-05-30T23:52:23.906Z,60.32
2019-05-30T23:54:56.309Z,60.58
2019-05-30T23:57:28.451Z,61.45
